createdAt,value
2022-09-06T00:01:27.235Z,1.90
2022-09-06T00:03:54.135Z,2.00
2022-09-06T00:06:21.033Z,2.03
2022-09-06T00:08:49.208Z,2.50
2022-09-06T00:11:16.979Z,1.83
2022-09-06T00:13:44.118Z,2.15
2022-09-06T00:16:13.790Z,1.87
2022-09-06T00:18:40.640Z,2.20
2022-09-06T00:21:19.627Z,2.47
2022-09-06T00:23:46.537Z,2.08
2022-09-06T00:26:13.964Z,2.25
2022-09-06T00:29:26.853Z,2.35
2022-09-06T00:32:02.807Z,2.85
2022-09-06T00:34:29.479Z,2.25
2022-09-06T00:36:56.172Z,2.00
2022-09-06T00:39:22.940Z,2.33
2022-09-06T00:41:49.838Z,2.37
2022-09-06T00:44:16.750Z,2.10
2022-09-06T00:47:06.671Z,1.98
2022-09-06T00:49:42.405Z,2.42
2022-09-06T00:52:13.075Z,2.08
2022-09-06T00:54:40.489Z,2.17
2022-09-06T00:57:07.770Z,2.30
2022-09-06T00:59:39.827Z,2.28
2022-09-06T01:02:53.543Z,2.35
2022-09-06T01:06:03.431Z,2.20
2022-09-06T01:08:51.402Z,2.28
2022-09-06T01:11:30.484Z,2.40
2022-09-06T01:14:09.322Z,2.33
2022-09-06T01:16:57.561Z,2.42
2022-09-06T01:19:55.234Z,2.50
2022-09-06T01:23:06.497Z,2.87
2022-09-06T01:25:48.710Z,2.45
2022-09-06T01:28:27.661Z,2.12
2022-09-06T01:31:05.263Z,2.25
2022-09-06T01:33:38.046Z,2.60
2022-09-06T01:40:19.880Z,2.30
2022-09-06T01:42:48.333Z,2.08
2022-09-06T01:45:19.139Z,2.20
2022-09-06T01:47:48.661Z,2.37
2022-09-06T01:50:34.846Z,2.40
2022-09-06T01:53:26.468Z,2.40
2022-09-06T01:56:33.867Z,2.37
2022-09-06T01:59:00.403Z,2.50
2022-09-06T02:01:49.647Z,2.62
2022-09-06T02:04:41.507Z,2.87
2022-09-06T02:07:26.067Z,2.67
2022-09-06T02:17:05.881Z,2.33
2022-09-06T02:19:49.302Z,2.67
2022-09-06T02:22:20.917Z,2.50
2022-09-06T02:24:51.326Z,2.87
2022-09-06T02:27:18.234Z,2.28
2022-09-06T02:30:09.937Z,2.72
2022-09-06T02:33:00.437Z,2.60
2022-09-06T02:35:27.682Z,2.90
2022-09-06T02:37:56.001Z,2.40
2022-09-06T02:40:23.086Z,2.95
2022-09-06T02:42:49.756Z,3.17
2022-09-06T02:51:48.340Z,3.15
2022-09-06T02:54:17.200Z,3.10
2022-09-06T02:56:43.822Z,3.35
2022-09-06T02:59:10.467Z,3.85
2022-09-06T03:01:37.190Z,3.10
2022-09-06T03:04:28.354Z,3.20
2022-09-06T03:06:56.359Z,3.08
2022-09-06T03:09:23.041Z,3.47
2022-09-06T03:11:49.670Z,3.12
2022-09-06T03:14:17.195Z,3.08
2022-09-06T03:16:43.907Z,3.28
2022-09-06T03:19:10.557Z,3.37
2022-09-06T03:26:47.650Z,2.62
2022-09-06T03:29:14.344Z,2.70
2022-09-06T03:31:40.968Z,2.75
2022-09-06T03:34:10.894Z,2.40
2022-09-06T03:36:38.312Z,2.92
2022-09-06T03:39:23.515Z,3.03
2022-09-06T03:41:50.252Z,2.83
2022-09-06T03:44:16.876Z,2.75
2022-09-06T03:46:43.543Z,2.60
2022-09-06T03:49:10.390Z,3.15
2022-09-06T03:51:39.633Z,2.80
2022-09-06T03:54:46.862Z,2.65
2022-09-06T03:58:16.514Z,2.67
2022-09-06T04:00:43.242Z,2.60
2022-09-06T04:03:10.063Z,2.60
2022-09-06T04:05:36.784Z,2.70
2022-09-06T04:08:03.937Z,2.70
2022-09-06T04:10:30.606Z,2.83
2022-09-06T04:15:37.982Z,2.62
2022-09-06T04:18:09.000Z,2.60
2022-09-06T04:20:35.927Z,2.83
2022-09-06T04:23:02.588Z,2.87
2022-09-06T04:25:29.185Z,2.72
2022-09-06T04:27:55.813Z,2.55
2022-09-06T04:33:35.924Z,2.58
2022-09-06T04:36:04.916Z,2.80
2022-09-06T04:38:44.144Z,2.67
2022-09-06T04:41:12.937Z,2.92
2022-09-06T04:43:39.606Z,3.00
2022-09-06T04:46:18.059Z,2.95
2022-09-06T04:48:58.096Z,3.00
2022-09-06T04:51:25.770Z,3.03
2022-09-06T04:53:52.858Z,3.20
2022-09-06T04:56:22.145Z,3.25
2022-09-06T04:58:50.249Z,3.20
2022-09-06T05:01:16.946Z,3.17
2022-09-06T05:04:30.441Z,3.08
2022-09-06T05:10:14.012Z,3.37
2022-09-06T05:12:44.115Z,3.40
2022-09-06T05:15:11.436Z,3.62
2022-09-06T05:17:38.053Z,3.08
2022-09-06T05:20:05.142Z,3.35
2022-09-06T05:22:31.742Z,3.45
2022-09-06T05:24:58.320Z,3.28
2022-09-06T05:27:25.140Z,2.80
2022-09-06T05:29:51.812Z,3.03
2022-09-06T05:32:18.413Z,3.00
2022-09-06T05:34:45.159Z,3.28
2022-09-06T05:37:11.866Z,2.60
2022-09-06T05:39:38.495Z,2.67
2022-09-06T05:42:06.931Z,2.90
2022-09-06T05:44:37.543Z,3.58
2022-09-06T05:47:04.760Z,2.85
2022-09-06T05:49:32.264Z,2.90
2022-09-06T05:51:59.068Z,2.70
2022-09-06T05:54:45.487Z,2.67
2022-09-06T05:57:12.151Z,2.62
2022-09-06T05:59:38.794Z,2.70
2022-09-06T06:02:07.468Z,2.97
2022-09-06T06:04:34.565Z,2.80
2022-09-06T06:07:01.778Z,2.78
2022-09-06T06:13:36.914Z,3.00
2022-09-06T06:16:03.895Z,3.20
2022-09-06T06:18:30.580Z,3.08
2022-09-06T06:21:17.583Z,3.47
2022-09-06T06:23:45.805Z,3.47
2022-09-06T06:26:13.900Z,3.47
2022-09-06T06:29:01.934Z,3.17
2022-09-06T06:31:30.448Z,3.40
2022-09-06T06:33:58.324Z,2.80
2022-09-06T06:36:30.775Z,3.58
2022-09-06T06:38:58.763Z,3.05
2022-09-06T06:41:28.814Z,2.78
2022-09-06T06:48:05.208Z,3.22
2022-09-06T06:50:31.867Z,3.00
2022-09-06T06:52:59.742Z,3.37
2022-09-06T06:55:26.406Z,3.35
2022-09-06T06:57:53.804Z,3.62
2022-09-06T07:00:23.099Z,3.72
2022-09-06T07:03:13.750Z,3.20
2022-09-06T07:08:30.037Z,3.92
2022-09-06T07:10:56.720Z,3.08
2022-09-06T07:13:23.354Z,2.83
2022-09-06T07:15:50.209Z,2.90
2022-09-06T07:22:04.639Z,2.78
2022-09-06T07:24:32.569Z,3.55
2022-09-06T07:29:48.413Z,3.42
2022-09-06T07:32:15.027Z,2.90
2022-09-06T07:34:41.745Z,2.97
2022-09-06T07:37:29.904Z,3.00
2022-09-06T07:39:56.599Z,3.00
2022-09-06T07:42:25.124Z,2.65
2022-09-06T07:44:51.753Z,3.10
2022-09-06T07:56:48.292Z,2.87
2022-09-06T07:59:15.287Z,2.95
2022-09-06T08:01:42.267Z,3.17
2022-09-06T08:04:12.818Z,2.97
2022-09-06T08:09:36.014Z,3.15
2022-09-06T08:12:21.378Z,3.40
2022-09-06T08:14:47.976Z,3.20
2022-09-06T08:17:14.617Z,2.85
2022-09-06T08:19:41.318Z,2.92
2022-09-06T08:22:08.082Z,2.95
2022-09-06T08:24:35.845Z,2.65
2022-09-06T08:31:03.424Z,2.60
2022-09-06T08:33:30.075Z,3.15
2022-09-06T08:36:01.145Z,3.05
2022-09-06T08:38:28.965Z,2.80
2022-09-06T08:41:07.933Z,2.70
2022-09-06T08:43:34.905Z,3.20
2022-09-06T08:46:29.984Z,3.15
2022-09-06T08:48:56.798Z,2.65
2022-09-06T08:51:58.943Z,3.35
2022-09-06T08:54:37.669Z,2.62
2022-09-06T08:57:30.412Z,2.95
2022-09-06T09:00:02.163Z,2.78
2022-09-06T09:06:35.298Z,2.50
2022-09-06T09:09:06.489Z,3.22
2022-09-06T09:11:36.026Z,3.53
2022-09-06T09:14:16.086Z,3.10
2022-09-06T09:16:43.368Z,3.42
2022-09-06T09:19:10.154Z,2.92
2022-09-06T09:21:40.158Z,2.58
2022-09-06T09:24:09.702Z,3.20
2022-09-06T09:27:01.047Z,2.83
2022-09-06T09:35:33.910Z,3.30
2022-09-06T09:43:42.597Z,2.62
2022-09-06T09:46:24.489Z,2.45
2022-09-06T09:49:11.938Z,2.80
2022-09-06T09:51:44.602Z,2.72
2022-09-06T09:54:32.319Z,2.67
2022-09-06T09:56:59.379Z,3.10
2022-09-06T09:59:44.971Z,3.08
2022-09-06T10:02:40.506Z,3.00
2022-09-06T10:05:07.202Z,2.65
2022-09-06T10:07:34.800Z,2.80
2022-09-06T10:10:06.272Z,2.70
2022-09-06T10:12:35.836Z,2.80
2022-09-06T10:15:06.875Z,2.70
2022-09-06T10:18:08.157Z,2.53
2022-09-06T10:26:38.594Z,2.35
2022-09-06T10:29:06.997Z,2.60
2022-09-06T10:31:47.521Z,2.37
2022-09-06T10:34:53.273Z,2.30
2022-09-06T10:37:25.561Z,2.40
2022-09-06T10:40:08.185Z,2.20
2022-09-06T10:43:01.506Z,2.40
2022-09-06T10:45:30.991Z,2.55
2022-09-06T10:48:14.777Z,3.00
2022-09-06T10:51:21.233Z,2.20
2022-09-06T11:02:02.960Z,2.10
2022-09-06T11:07:30.415Z,2.45
2022-09-06T11:10:05.174Z,2.50
2022-09-06T11:12:50.608Z,2.62
2022-09-06T11:15:19.332Z,2.22
2022-09-06T11:17:56.885Z,2.45
2022-09-06T11:20:33.536Z,2.58
2022-09-06T11:23:27.945Z,2.80
2022-09-06T11:26:15.925Z,2.60
2022-09-06T11:29:00.392Z,2.28
2022-09-06T11:34:35.483Z,2.28
2022-09-06T11:37:07.759Z,2.67
2022-09-06T11:43:01.094Z,2.20
2022-09-06T11:45:45.899Z,2.12
2022-09-06T11:48:26.315Z,2.10
2022-09-06T11:51:12.438Z,2.10
2022-09-06T11:53:51.243Z,2.22
2022-09-06T11:56:29.691Z,2.20
2022-09-06T11:59:03.983Z,2.20
2022-09-06T12:01:30.593Z,1.95
2022-09-06T12:04:05.577Z,1.75
2022-09-06T12:10:15.438Z,1.52
2022-09-06T12:12:50.035Z,1.80
2022-09-06T12:15:45.516Z,1.80
2022-09-06T12:18:47.039Z,1.90
2022-09-06T12:21:47.428Z,2.00
2022-09-06T12:24:46.250Z,1.80
2022-09-06T12:27:18.653Z,1.70
2022-09-06T12:29:55.055Z,1.80
2022-09-06T12:32:36.092Z,1.98
2022-09-06T12:38:04.815Z,1.87
2022-09-06T12:40:40.848Z,1.80
2022-09-06T12:43:11.520Z,1.65
2022-09-06T12:45:44.634Z,2.08
2022-09-06T12:48:25.328Z,1.73
2022-09-06T12:51:16.166Z,1.87
2022-09-06T12:54:04.175Z,1.90
2022-09-06T12:56:34.147Z,1.80
2022-09-06T12:59:17.024Z,1.87
2022-09-06T13:01:50.573Z,2.30
2022-09-06T13:04:37.565Z,1.70
2022-09-06T13:07:05.482Z,1.80
2022-09-06T13:09:33.466Z,2.00
2022-09-06T13:12:33.638Z,1.90
2022-09-06T13:15:31.244Z,2.12
2022-09-06T13:18:37.168Z,1.80
2022-09-06T13:21:08.067Z,1.92
2022-09-06T13:24:04.074Z,2.10
2022-09-06T13:26:39.325Z,1.83
2022-09-06T13:29:25.474Z,2.15
2022-09-06T13:31:54.557Z,1.90
2022-09-06T13:34:21.074Z,1.80
2022-09-06T13:36:55.805Z,2.08
2022-09-06T13:39:38.186Z,2.05
2022-09-06T13:42:10.707Z,2.17
2022-09-06T13:44:39.265Z,2.12
2022-09-06T13:47:06.568Z,2.00
2022-09-06T13:49:35.835Z,2.17
2022-09-06T13:52:04.471Z,2.20
2022-09-06T13:54:32.438Z,2.28
2022-09-06T13:56:59.066Z,2.10
2022-09-06T13:59:25.660Z,2.10
2022-09-06T14:02:05.567Z,2.10
2022-09-06T14:04:35.213Z,2.42
2022-09-06T14:07:01.895Z,2.17
2022-09-06T14:09:29.504Z,2.35
2022-09-06T14:11:56.324Z,2.10
2022-09-06T14:14:23.044Z,2.08
2022-09-06T14:16:49.881Z,2.20
2022-09-06T14:19:16.966Z,2.10
2022-09-06T14:21:43.829Z,2.15
2022-09-06T14:24:10.601Z,2.33
2022-09-06T14:26:38.653Z,2.42
2022-09-06T14:29:05.523Z,2.00
2022-09-06T14:31:35.390Z,1.83
2022-09-06T14:34:02.502Z,1.87
2022-09-06T14:36:31.197Z,1.95
2022-09-06T14:39:01.969Z,2.05
2022-09-06T14:41:28.870Z,2.00
2022-09-06T14:43:57.732Z,1.85
2022-09-06T14:46:25.864Z,1.77
2022-09-06T14:49:01.641Z,1.80
2022-09-06T14:51:30.213Z,2.08
2022-09-06T14:54:00.004Z,1.87
2022-09-06T14:56:27.242Z,2.10
2022-09-06T14:58:57.475Z,1.80
2022-09-06T15:01:34.157Z,2.62
2022-09-06T15:04:06.166Z,1.80
2022-09-06T15:06:34.803Z,2.25
2022-09-06T15:09:01.484Z,1.58
2022-09-06T15:11:34.658Z,2.15
2022-09-06T15:14:07.884Z,1.85
2022-09-06T15:16:35.971Z,2.50
2022-09-06T15:19:02.869Z,2.20
2022-09-06T15:21:30.695Z,2.33
2022-09-06T15:23:57.868Z,2.10
2022-09-06T15:26:25.255Z,2.65
2022-09-06T15:28:52.232Z,2.33
2022-09-06T15:31:19.688Z,2.30
2022-09-06T15:33:48.962Z,2.75
2022-09-06T15:36:16.532Z,3.10
2022-09-06T15:38:47.445Z,3.00
2022-09-06T15:41:17.024Z,3.25
2022-09-06T15:43:47.136Z,3.70
2022-09-06T15:46:15.932Z,3.22
2022-09-06T15:48:48.482Z,3.58
2022-09-06T15:53:46.418Z,3.70
2022-09-06T15:56:18.997Z,3.75
2022-09-06T16:09:59.350Z,4.00
2022-09-06T18:35:33.286Z,5.05
2022-09-06T18:38:06.084Z,4.50
2022-09-06T19:11:14.132Z,5.95
2022-09-06T19:13:41.919Z,5.00
2022-09-06T20:20:56.304Z,4.80
2022-09-06T20:23:23.166Z,5.10
2022-09-06T20:26:00.790Z,4.45
2022-09-06T20:28:28.091Z,5.30
2022-09-06T20:31:00.222Z,4.65
2022-09-06T20:33:27.179Z,4.78
2022-09-06T20:35:58.661Z,4.57
2022-09-06T20:38:26.550Z,4.80
2022-09-06T20:41:06.758Z,5.05
2022-09-06T20:43:36.681Z,4.80
2022-09-06T20:46:08.935Z,4.75
2022-09-06T20:48:44.166Z,5.07
2022-09-06T20:51:19.035Z,5.50
2022-09-06T20:53:48.729Z,5.00
2022-09-06T20:56:19.217Z,4.72
2022-09-06T20:58:57.434Z,4.72
2022-09-06T21:01:28.248Z,5.03
2022-09-06T21:03:57.247Z,4.78
2022-09-06T21:06:25.554Z,4.85
2022-09-06T21:08:52.902Z,5.00
2022-09-06T21:11:20.229Z,4.80
2022-09-06T21:13:52.511Z,5.47
2022-09-06T21:16:24.956Z,4.93
2022-09-06T21:19:00.372Z,5.32
2022-09-06T21:21:29.195Z,5.18
2022-09-06T21:23:56.187Z,4.80
2022-09-06T21:26:39.313Z,4.78
2022-09-06T21:29:05.988Z,5.53
2022-09-06T21:31:36.179Z,5.32
2022-09-06T21:34:11.449Z,5.55
2022-09-06T21:36:40.882Z,6.18
2022-09-06T21:39:10.700Z,6.07
2022-09-06T21:45:44.298Z,5.85
2022-09-06T21:48:10.925Z,5.60
2022-09-06T21:50:37.566Z,5.75
2022-09-06T21:53:04.242Z,5.72
2022-09-06T21:55:32.919Z,5.55
2022-09-06T21:57:59.560Z,6.05
2022-09-06T22:00:55.715Z,5.62
2022-09-06T22:03:23.018Z,5.12
2022-09-06T22:05:50.222Z,5.55
2022-09-06T22:08:17.792Z,4.97
2022-09-06T22:10:44.645Z,5.12
2022-09-06T22:13:11.546Z,5.60
2022-09-06T22:20:21.899Z,5.60
2022-09-06T22:22:49.562Z,4.62
2022-09-06T22:25:16.782Z,4.85
2022-09-06T22:27:43.448Z,5.18
2022-09-06T22:30:10.642Z,5.03
2022-09-06T22:32:37.324Z,5.18
2022-09-06T22:35:05.994Z,5.40
2022-09-06T22:37:36.618Z,4.97
2022-09-06T22:40:04.319Z,5.53
2022-09-06T22:42:31.133Z,5.03
2022-09-06T22:44:57.745Z,4.68
2022-09-06T22:47:25.458Z,4.87
2022-09-06T22:49:52.180Z,4.97
2022-09-06T22:52:46.737Z,5.30
2022-09-06T22:55:13.370Z,5.68
2022-09-06T22:57:40.441Z,5.47
2022-09-06T23:00:07.950Z,5.10
2022-09-06T23:02:34.609Z,5.45
2022-09-06T23:05:01.316Z,5.57
2022-09-06T23:08:05.638Z,5.65
2022-09-06T23:11:03.986Z,4.80
2022-09-06T23:13:30.934Z,5.18
2022-09-06T23:16:06.637Z,5.40
2022-09-06T23:18:33.909Z,6.03
2022-09-06T23:21:09.028Z,5.82
2022-09-06T23:23:36.825Z,5.62
2022-09-06T23:26:28.817Z,5.85
2022-09-06T23:28:58.695Z,5.90
2022-09-06T23:31:27.145Z,5.85
2022-09-06T23:33:58.216Z,5.82
2022-09-06T23:36:25.242Z,5.97
2022-09-06T23:38:52.357Z,5.82
2022-09-06T23:45:11.668Z,5.75
2022-09-06T23:47:38.340Z,6.03
2022-09-06T23:50:05.395Z,6.47
2022-09-06T23:52:32.039Z,5.93
2022-09-06T23:54:58.646Z,5.43
2022-09-06T23:57:25.597Z,6.20
2022-09-06T23:59:52.231Z,5.82
